SBCGSBFL

Guest
Details From SBCG - Campo Grande
To SBFL - Hercillo Luz
Flight Number -
Tags Generated
Created
Modified
Stats Distance 547 nm / 1,014 km
Max Altitude 0 ft / 0 m
Waypoints 3
Social Downloads 1
Likes 0
Share VATSIM

Download

Looking for another format? Having issues loading an existing format? Contact us
Advertisement - Login to hide

Notes

Generated

Route

SBCG IL SBFL

ID Type Via Altitude Latitude Longitude Leg Dist Tot Dist Heading (true) Name
O SBCG APT - 0 ft / 0 m -20.47754˚ -54.68069˚ - 0 nm - -
IL NDB - 0 ft / 0 m -27.66150˚ -48.55917˚ 546 nm 546 nm 143° / 141° CARIANO NDB
O SBFL APT - 0 ft / 0 m -27.67664˚ -48.55458˚ 0 nm 547 nm 165° / 165° -

Altitude Profile

Advertisement - Login to hide

Weather


0- 5 10 15 20 25 30 35+ Temperature / ° C

Clouds and Precipitation
Forecast for 2018-05-26 00:00 UTC. Updated 3 hours ago

Ground ~20,000 ft ~40,000 ft Winds

SBCG

Details ICAO SBCG (CGR)
Name Campo Grande
Region Brazil
Timezone America/Campo_Grande (UTC-4.0)
Stats Elevation 1,833 ft / 559 m (AMSL)
Location -20.468666° -54.672500°
Runways 1
Magnetic Variation 17.604° W

METAR

SBCG 260200Z 12005KT CAVOK 21/14 Q1019

Decode

TAF

TAF SBCG 252100Z 2600/2624 11006KT CAVOK TN17/2609Z TX31/2618Z BECMG 2613/2615 08008KT 9999 FEW035 RMK PDJ

Decode

Departure Runways

ID Width Length Bearing (true) Bearing (mag) Surface Threshold Offset Overrun Length
06 141 ft / 43 m 8,563 ft / 2,610 m 40.84° 58.44° Asphalt 0 ft / 0 m 192 ft / 59 m
24 141 ft / 43 m 8,563 ft / 2,610 m 220.83° 238.43° Asphalt 0 ft / 0 m 190 ft / 58 m

SBFL

Details ICAO SBFL (FLN)
Name Hercillo Luz
Region Brazil
Timezone America/Sao_Paulo (UTC-3.0)
Stats Elevation 19 ft / 6 m (AMSL)
Location -27.670487° -48.547180°
Runways 2
Magnetic Variation 19.382° W

METAR

SBFL 260200Z 30003KT 9999 BKN040 18/15 Q1024

Decode

TAF

TAF SBFL 252100Z 2600/2624 05005KT 9999 SCT030 TN15/2607Z TX23/2618Z BECMG 2604/2606 28004KT BKN030 BECMG 2614/2616 36008KT SCT035 RMK PDJ

Decode

Destination Runways

ID Width Length Bearing (true) Bearing (mag) Surface Threshold Offset Overrun Length
03 148 ft / 45 m 4,939 ft / 1,505 m 11.55° 30.93° Concrete 0 ft / 0 m 0 ft / 0 m
14 148 ft / 45 m 7,543 ft / 2,299 m 121.30° 140.68° Asphalt 720 ft / 219 m 0 ft / 0 m
21 148 ft / 45 m 4,939 ft / 1,505 m 191.55° 210.93° Concrete 0 ft / 0 m 0 ft / 0 m
32 148 ft / 45 m 7,543 ft / 2,299 m 301.29° 320.67° Asphalt 0 ft / 0 m 200 ft / 61 m

Approach Navaids

Runway Type Ident Frequency Range Bearing (true) Bearing (mag) Slope Elevation
14 Localiser IFL 110.30 MHz 18 nm / 33 km 121.67° 141.05° - 19 ft / 6 m (AMSL)
14 Glidescope IFL 110.30 MHz 10 nm / 19 km 121.29° 140.67° 3.00° 19 ft / 6 m (AMSL)

Popular Alternatives